Terminal Aerodrome Forecast
Issued by NWS Mt. Holly, NJ

Home | Current Version | Previous Version | Text Only | Print | Product List | Glossary On
Versions: 1 2 3 4 5 6 7 8 9 10 11 12 13 14 15 16 17 18
000
FTUS41 KPHI 290323 AAB
TAFABE
TAF AMD
KABE 290323Z 2903/2924 VRB03KT 4SM -SHRA BR OVC080
      TEMPO 2905/2907 2SM RA OVC050
     FM290700 05006KT 4SM RA BR OVC050
      TEMPO 2907/2910 1SM +TSRA OVC009CB
     FM291100 02009KT P6SM VCSH OVC015
      TEMPO 2911/2914 4SM -SHRA
     FM291400 36010KT P6SM OVC015
     FM291600 36010KT P6SM BKN050=

USA.gov is the U.S. government's official web portal to all federal, state and local government web resources and services.